createdAt,value
2017-11-28T00:01:12.974Z,5.88
2017-11-28T00:03:42.778Z,5.89
2017-11-28T00:06:12.675Z,5.88
2017-11-28T00:08:41.742Z,5.88
2017-11-28T00:13:45.924Z,5.88
2017-11-28T00:16:14.942Z,5.87
2017-11-28T00:18:47.496Z,5.79
2017-11-28T00:21:19.868Z,5.58
2017-11-28T00:23:49.053Z,5.35
2017-11-28T00:26:19.821Z,5.25
2017-11-28T00:28:49.051Z,5.26
2017-11-28T00:31:19.321Z,5.30
2017-11-28T00:33:48.527Z,5.26
2017-11-28T00:36:18.068Z,5.28
2017-11-28T00:41:24.310Z,5.20
2017-11-28T00:43:54.375Z,5.19
2017-11-28T00:46:24.323Z,5.07
2017-11-28T00:48:53.544Z,4.98
2017-11-28T00:51:23.145Z,5.06
2017-11-28T00:53:52.479Z,4.98
2017-11-28T00:56:21.552Z,4.86
2017-11-28T00:58:51.362Z,4.91
2017-11-28T01:01:21.373Z,4.84
2017-11-28T01:03:51.499Z,4.82
2017-11-28T01:06:20.494Z,4.75
2017-11-28T01:08:51.530Z,4.75
2017-11-28T01:11:20.929Z,4.73
2017-11-28T01:13:50.337Z,4.66
2017-11-28T01:16:20.326Z,4.68
2017-11-28T01:18:50.316Z,4.71
2017-11-28T01:21:19.505Z,4.70
2017-11-28T01:23:48.701Z,4.74
2017-11-28T01:26:18.215Z,4.73
2017-11-28T01:28:48.422Z,4.62
2017-11-28T01:31:18.521Z,4.62
2017-11-28T01:33:48.297Z,4.59
2017-11-28T01:36:17.523Z,4.58
2017-11-28T01:38:46.729Z,4.63
2017-11-28T01:41:16.028Z,4.58
2017-11-28T01:43:45.321Z,4.48
2017-11-28T01:46:14.628Z,4.47
2017-11-28T01:48:43.877Z,4.49
2017-11-28T01:51:13.015Z,4.51
2017-11-28T01:56:18.687Z,4.34
2017-11-28T01:58:47.988Z,4.31
2017-11-28T02:01:18.094Z,4.27
2017-11-28T02:03:47.252Z,4.32
2017-11-28T02:06:16.508Z,4.23
2017-11-28T02:08:46.837Z,4.32
2017-11-28T02:11:16.137Z,4.19
2017-11-28T02:13:45.700Z,4.17
2017-11-28T02:16:14.941Z,4.26
2017-11-28T02:18:45.868Z,4.24
2017-11-28T02:21:16.047Z,4.27
2017-11-28T02:23:45.221Z,4.31
2017-11-28T02:26:15.497Z,4.26
2017-11-28T02:28:46.499Z,4.26
2017-11-28T02:31:15.758Z,4.24
2017-11-28T02:33:45.910Z,4.22
2017-11-28T02:36:16.824Z,4.18
2017-11-28T02:38:46.375Z,4.19
2017-11-28T02:41:17.421Z,4.25
2017-11-28T02:43:48.469Z,4.30
2017-11-28T02:46:18.465Z,4.22
2017-11-28T02:49:05.315Z,4.23
2017-11-28T02:51:39.303Z,4.19
2017-11-28T02:54:08.648Z,4.10
2017-11-28T02:56:37.893Z,4.19
2017-11-28T02:59:08.512Z,4.19
2017-11-28T03:01:48.368Z,4.22
2017-11-28T03:04:17.524Z,4.24
2017-11-28T03:06:47.801Z,4.18
2017-11-28T03:09:19.855Z,4.20
2017-11-28T03:11:50.012Z,4.21
2017-11-28T03:14:25.888Z,4.16
2017-11-28T03:16:56.983Z,4.22
2017-11-28T03:22:27.375Z,4.22
2017-11-28T03:25:04.971Z,4.18
2017-11-28T03:27:33.708Z,4.18
2017-11-28T03:30:02.482Z,4.21
2017-11-28T03:32:32.432Z,3.96
2017-11-28T03:35:01.391Z,3.96
2017-11-28T03:37:33.122Z,4.01
2017-11-28T03:40:04.624Z,3.96
2017-11-28T03:42:34.486Z,3.85
2017-11-28T03:45:26.701Z,4.00
2017-11-28T03:47:57.110Z,3.93
2017-11-28T03:50:26.343Z,3.89
2017-11-28T03:52:55.853Z,3.79
2017-11-28T03:55:26.260Z,4.01
2017-11-28T03:57:55.508Z,3.93
2017-11-28T04:00:25.118Z,3.99
2017-11-28T04:02:55.062Z,4.03
2017-11-28T04:05:24.292Z,3.99
2017-11-28T04:07:55.337Z,3.97
2017-11-28T04:10:24.467Z,3.93
2017-11-28T04:12:54.034Z,3.91
2017-11-28T04:15:26.971Z,3.95
2017-11-28T04:17:57.309Z,3.88
2017-11-28T04:20:28.456Z,3.76
2017-11-28T04:22:57.648Z,3.72
2017-11-28T04:25:26.924Z,3.80
2017-11-28T04:27:56.022Z,3.84
2017-11-28T04:30:25.287Z,3.60
2017-11-28T04:33:02.709Z,3.50
2017-11-28T04:35:31.926Z,3.59
2017-11-28T04:38:02.398Z,3.69
2017-11-28T04:40:32.400Z,3.46
2017-11-28T04:43:01.617Z,3.40
2017-11-28T04:45:32.081Z,3.45
2017-11-28T04:48:01.555Z,3.39
2017-11-28T04:50:31.890Z,3.49
2017-11-28T04:53:01.379Z,3.40
2017-11-28T04:58:06.185Z,3.27
2017-11-28T05:00:35.903Z,3.32
2017-11-28T05:03:05.029Z,3.24
2017-11-28T05:05:35.155Z,3.19
2017-11-28T05:08:04.395Z,3.17
2017-11-28T05:10:36.534Z,3.12
2017-11-28T05:13:06.131Z,3.10
2017-11-28T05:15:36.290Z,3.17
2017-11-28T05:18:08.317Z,3.16
2017-11-28T05:20:38.445Z,3.26
2017-11-28T05:23:07.987Z,3.13
2017-11-28T05:25:39.170Z,3.21
2017-11-28T05:28:09.356Z,3.32
2017-11-28T05:30:38.850Z,3.29
2017-11-28T05:33:08.232Z,3.21
2017-11-28T05:35:38.481Z,3.14
2017-11-28T05:38:08.190Z,3.16
2017-11-28T05:43:13.982Z,3.31
2017-11-28T05:45:51.106Z,3.39
2017-11-28T05:48:20.296Z,3.26
2017-11-28T05:50:49.604Z,3.38
2017-11-28T05:53:21.204Z,3.47
2017-11-28T05:55:50.352Z,3.46
2017-11-28T05:58:20.436Z,3.54
2017-11-28T06:00:50.849Z,3.42
2017-11-28T06:03:20.245Z,3.58
2017-11-28T06:05:49.423Z,3.61
2017-11-28T06:08:20.449Z,3.63
2017-11-28T06:10:50.739Z,3.60
2017-11-28T06:13:19.853Z,3.86
2017-11-28T06:15:50.079Z,4.01
2017-11-28T06:18:20.300Z,4.30
2017-11-28T06:20:49.812Z,4.42
2017-11-28T06:23:19.049Z,4.42
2017-11-28T06:25:49.233Z,4.40
2017-11-28T06:28:18.869Z,4.38
2017-11-28T06:30:48.953Z,4.39
2017-11-28T06:33:18.331Z,4.50
2017-11-28T06:35:48.414Z,4.62
2017-11-28T06:38:17.669Z,4.71
2017-11-28T06:40:47.060Z,4.79
2017-11-28T06:43:17.183Z,4.82
2017-11-28T06:48:22.866Z,4.87
2017-11-28T06:50:52.116Z,4.80
2017-11-28T06:53:21.251Z,4.71
2017-11-28T06:55:50.623Z,4.76
2017-11-28T06:58:19.764Z,4.82
2017-11-28T07:00:49.758Z,4.89
2017-11-28T07:03:19.121Z,4.90
2017-11-28T07:05:48.472Z,4.94
2017-11-28T07:08:17.707Z,4.97
2017-11-28T07:10:48.616Z,4.85
2017-11-28T07:13:17.821Z,4.93
2017-11-28T07:15:47.117Z,4.95
2017-11-28T07:18:16.224Z,4.82
2017-11-28T07:20:45.271Z,4.91
2017-11-28T07:23:16.969Z,4.97
2017-11-28T07:25:47.039Z,5.02
2017-11-28T07:28:16.406Z,4.94
2017-11-28T07:30:45.902Z,5.02
2017-11-28T07:33:15.908Z,5.01
2017-11-28T07:35:45.213Z,5.07
2017-11-28T07:38:16.715Z,5.01
2017-11-28T07:40:46.064Z,5.06
2017-11-28T07:43:16.603Z,5.11
2017-11-28T07:45:49.792Z,5.05
2017-11-28T07:48:20.140Z,5.20
2017-11-28T07:50:49.417Z,5.45
2017-11-28T07:53:18.911Z,5.55
2017-11-28T07:55:48.222Z,5.75
2017-11-28T07:58:18.039Z,5.91
2017-11-28T08:00:48.699Z,5.88
2017-11-28T08:03:18.222Z,5.94
2017-11-28T08:05:47.847Z,6.08
2017-11-28T08:08:18.720Z,6.24
2017-11-28T08:10:49.005Z,6.21
2017-11-28T08:13:18.309Z,6.09
2017-11-28T08:15:50.125Z,6.12
2017-11-28T08:18:21.064Z,6.04
2017-11-28T08:20:50.335Z,6.04
2017-11-28T08:23:19.588Z,6.02
2017-11-28T08:25:49.553Z,6.17
2017-11-28T08:28:19.324Z,6.28
2017-11-28T08:30:48.526Z,6.21
2017-11-28T08:33:18.180Z,6.23
2017-11-28T08:35:48.482Z,6.37
2017-11-28T08:38:18.730Z,6.44
2017-11-28T08:40:48.326Z,6.44
2017-11-28T08:43:20.703Z,6.63
2017-11-28T08:46:03.313Z,6.61
2017-11-28T08:48:32.806Z,6.89
2017-11-28T08:51:03.169Z,6.87
2017-11-28T08:53:34.687Z,7.00
2017-11-28T08:56:04.228Z,7.18
2017-11-28T08:58:33.614Z,7.29
2017-11-28T09:01:05.402Z,7.36
2017-11-28T09:03:34.972Z,7.48
2017-11-28T09:06:04.890Z,7.52
2017-11-28T09:08:36.192Z,7.48
2017-11-28T09:11:06.765Z,7.57
2017-11-28T09:13:37.197Z,7.51
2017-11-28T09:16:07.429Z,7.59
2017-11-28T09:18:36.603Z,7.72
2017-11-28T09:21:10.769Z,7.90
2017-11-28T09:23:42.693Z,7.86
2017-11-28T09:28:51.861Z,7.53
2017-11-28T09:31:25.312Z,7.74
2017-11-28T09:33:56.192Z,7.88
2017-11-28T09:39:01.730Z,7.67
2017-11-28T09:41:32.574Z,7.64
2017-11-28T09:44:02.598Z,7.55
2017-11-28T09:46:43.054Z,7.54
2017-11-28T09:49:13.515Z,7.56
2017-11-28T09:51:43.680Z,7.36
2017-11-28T09:54:13.000Z,7.52
2017-11-28T09:56:43.948Z,7.56
2017-11-28T09:59:13.129Z,7.47
2017-11-28T10:01:42.497Z,7.31
2017-11-28T10:04:11.794Z,7.31
2017-11-28T10:06:42.329Z,7.24
2017-11-28T10:09:11.552Z,7.11
2017-11-28T10:11:40.776Z,7.15
2017-11-28T10:14:09.861Z,7.10
2017-11-28T10:16:39.394Z,7.05
2017-11-28T10:19:09.202Z,7.08
2017-11-28T10:21:38.632Z,6.98
2017-11-28T10:24:08.024Z,7.04
2017-11-28T10:26:37.205Z,7.00
2017-11-28T10:29:07.628Z,7.08
2017-11-28T10:31:37.832Z,7.15
2017-11-28T10:34:06.941Z,6.78
2017-11-28T10:36:36.177Z,6.83
2017-11-28T10:39:06.475Z,6.83
2017-11-28T10:41:36.809Z,6.80
2017-11-28T10:44:06.226Z,6.73
2017-11-28T10:46:36.147Z,6.81
2017-11-28T10:49:06.240Z,6.77
2017-11-28T10:51:35.817Z,6.64
2017-11-28T10:54:05.189Z,6.63
2017-11-28T10:56:34.670Z,6.59
2017-11-28T10:59:04.082Z,6.54
2017-11-28T11:04:10.428Z,6.57
2017-11-28T11:06:40.058Z,6.64
2017-11-28T11:09:11.054Z,6.66
2017-11-28T11:11:40.577Z,6.81
2017-11-28T11:14:10.506Z,6.73
2017-11-28T11:16:40.420Z,6.53
2017-11-28T11:19:10.868Z,6.38
2017-11-28T11:21:41.165Z,6.38
2017-11-28T11:26:44.556Z,6.24
2017-11-28T11:29:13.780Z,6.16
2017-11-28T11:31:43.007Z,6.33
2017-11-28T11:34:13.349Z,6.56
2017-11-28T11:36:42.896Z,6.67
2017-11-28T11:39:12.098Z,6.69
2017-11-28T11:41:42.336Z,6.70
2017-11-28T11:44:11.898Z,6.75
2017-11-28T11:46:43.215Z,6.82
2017-11-28T11:49:12.711Z,6.84
2017-11-28T11:51:41.837Z,6.84
2017-11-28T11:54:11.044Z,6.74
2017-11-28T11:56:40.604Z,6.86
2017-11-28T11:59:09.888Z,6.76
2017-11-28T12:01:39.049Z,6.87
2017-11-28T12:04:09.328Z,7.01
2017-11-28T12:06:38.757Z,7.09
2017-11-28T12:09:11.167Z,7.12
2017-11-28T12:11:41.103Z,7.11
2017-11-28T12:14:10.597Z,7.13
2017-11-28T12:16:42.797Z,7.06
2017-11-28T12:19:12.082Z,6.84
2017-11-28T12:21:41.600Z,6.65
2017-11-28T12:24:12.211Z,6.50
2017-11-28T12:26:41.567Z,6.34
2017-11-28T12:29:11.933Z,6.26
2017-11-28T12:31:42.215Z,6.09
2017-11-28T12:34:11.539Z,6.05
2017-11-28T12:36:40.869Z,5.97
2017-11-28T12:39:10.984Z,5.82
2017-11-28T12:41:41.250Z,5.77
2017-11-28T12:44:10.599Z,5.72
2017-11-28T12:46:41.723Z,5.65
2017-11-28T12:49:10.954Z,5.69
2017-11-28T12:51:41.088Z,5.48
2017-11-28T12:56:45.179Z,5.59
2017-11-28T12:59:14.247Z,5.43
2017-11-28T13:01:43.573Z,5.52
2017-11-28T13:04:15.058Z,5.55
2017-11-28T13:06:44.405Z,5.65
2017-11-28T13:09:13.693Z,5.70
2017-11-28T13:11:46.236Z,5.70
2017-11-28T13:14:15.475Z,5.75
2017-11-28T13:16:44.785Z,5.82
2017-11-28T13:19:16.177Z,5.85
2017-11-28T13:21:45.617Z,5.87
2017-11-28T13:24:15.014Z,5.76
2017-11-28T13:26:44.218Z,5.72
2017-11-28T13:29:16.504Z,5.67
2017-11-28T13:31:45.666Z,5.60
2017-11-28T13:34:14.795Z,5.45
2017-11-28T13:36:44.172Z,5.32
2017-11-28T13:39:14.385Z,5.34
2017-11-28T13:41:45.232Z,5.29
2017-11-28T13:44:14.549Z,5.43
2017-11-28T13:46:46.394Z,5.40
2017-11-28T13:49:15.911Z,5.53
2017-11-28T13:51:45.164Z,5.49
2017-11-28T13:56:49.158Z,5.60
2017-11-28T13:59:18.314Z,5.54
2017-11-28T14:04:23.506Z,5.61
2017-11-28T14:06:53.944Z,5.48
2017-11-28T14:09:29.644Z,5.56
2017-11-28T14:11:58.992Z,5.62
2017-11-28T14:14:28.159Z,5.63
2017-11-28T14:16:57.463Z,5.60
2017-11-28T14:19:26.756Z,5.36
2017-11-28T14:22:12.020Z,5.38
2017-11-28T14:25:01.491Z,5.36
2017-11-28T14:27:37.125Z,5.21
2017-11-28T14:30:07.380Z,5.30
2017-11-28T14:35:22.873Z,5.20
2017-11-28T14:37:55.595Z,5.37
2017-11-28T14:40:25.353Z,5.43
2017-11-28T14:42:58.980Z,5.47
2017-11-28T14:45:30.995Z,5.54
2017-11-28T14:48:00.485Z,5.38
2017-11-28T14:50:35.353Z,5.33
2017-11-28T14:53:07.994Z,5.35
2017-11-28T14:55:54.019Z,5.38
2017-11-28T15:01:32.959Z,5.17
2017-11-28T15:04:09.768Z,5.14
2017-11-28T15:06:44.794Z,5.13
2017-11-28T15:12:00.013Z,5.10
2017-11-28T15:17:35.909Z,5.08
2017-11-28T15:20:09.668Z,5.06
2017-11-28T15:22:39.530Z,5.03
2017-11-28T15:25:29.716Z,4.93
2017-11-28T15:30:34.566Z,4.91
2017-11-28T15:33:04.032Z,4.87
2017-11-28T15:35:33.750Z,4.68
2017-11-28T15:38:03.179Z,4.70
2017-11-28T15:40:33.316Z,4.66
2017-11-28T15:43:03.556Z,4.71
2017-11-28T15:45:33.927Z,4.71
2017-11-28T15:48:04.170Z,4.71
2017-11-28T15:50:33.620Z,4.71
2017-11-28T15:53:02.767Z,4.60
2017-11-28T15:55:32.243Z,4.66
2017-11-28T15:58:03.093Z,4.84
2017-11-28T16:00:32.320Z,4.91
2017-11-28T16:03:01.795Z,4.69
2017-11-28T16:05:31.787Z,4.84
2017-11-28T16:08:02.828Z,4.80
2017-11-28T16:10:32.128Z,4.78
2017-11-28T16:13:02.553Z,4.69
2017-11-28T16:15:32.406Z,4.73
2017-11-28T16:18:02.416Z,4.84
2017-11-28T16:20:31.586Z,4.90
2017-11-28T16:23:01.079Z,4.88
2017-11-28T16:25:30.297Z,4.74
2017-11-28T16:28:01.418Z,4.69
2017-11-28T16:30:30.718Z,4.67
2017-11-28T16:33:00.385Z,4.61
2017-11-28T16:35:29.897Z,4.66
2017-11-28T16:37:59.396Z,4.65
2017-11-28T16:40:30.273Z,4.66
2017-11-28T16:42:59.611Z,4.65
2017-11-28T16:45:29.885Z,4.53
2017-11-28T16:47:59.643Z,4.48
2017-11-28T16:50:28.884Z,4.47
2017-11-28T16:52:58.176Z,4.38
2017-11-28T16:55:28.557Z,4.35
2017-11-28T16:57:57.895Z,4.22
2017-11-28T17:00:27.730Z,4.08
2017-11-28T17:02:57.278Z,4.00
2017-11-28T17:05:27.292Z,4.10
2017-11-28T17:07:56.551Z,4.21
2017-11-28T17:10:26.563Z,4.04
2017-11-28T17:12:56.591Z,3.96
2017-11-28T17:15:26.743Z,4.00
2017-11-28T17:17:58.766Z,3.96
2017-11-28T17:20:28.941Z,4.04
2017-11-28T17:22:58.415Z,4.00
2017-11-28T17:25:29.893Z,4.06
2017-11-28T17:28:00.120Z,4.09
2017-11-28T17:30:29.672Z,4.14
2017-11-28T17:33:00.777Z,4.04
2017-11-28T17:35:30.115Z,4.04
2017-11-28T17:37:59.410Z,4.07
2017-11-28T17:40:28.805Z,4.07
2017-11-28T17:42:58.193Z,4.09
2017-11-28T17:45:27.617Z,4.08
2017-11-28T17:47:59.035Z,4.01
2017-11-28T17:50:34.591Z,4.00
2017-11-28T17:53:04.819Z,4.04
2017-11-28T17:55:34.598Z,4.02
2017-11-28T17:58:04.493Z,4.00
2017-11-28T18:00:34.324Z,4.03
2017-11-28T18:03:04.112Z,4.04
2017-11-28T18:05:33.504Z,4.07
2017-11-28T18:08:02.927Z,4.02
2017-11-28T18:10:33.783Z,4.04
2017-11-28T18:13:03.683Z,4.04
2017-11-28T18:15:33.091Z,3.95
2017-11-28T18:18:02.630Z,3.99
2017-11-28T18:20:31.918Z,4.06
2017-11-28T18:23:02.036Z,4.01
2017-11-28T18:25:31.435Z,3.97
2017-11-28T18:28:00.734Z,3.97
2017-11-28T18:30:31.006Z,4.00
2017-11-28T18:33:00.053Z,4.04
2017-11-28T18:35:29.377Z,3.94
2017-11-28T18:37:58.807Z,3.99
2017-11-28T18:40:29.119Z,3.98
2017-11-28T18:43:02.185Z,3.97
2017-11-28T18:45:31.656Z,3.99
2017-11-28T18:48:01.624Z,4.03
2017-11-28T18:50:32.040Z,4.06
2017-11-28T18:53:02.599Z,4.01
2017-11-28T18:55:32.837Z,4.06
2017-11-28T18:58:03.192Z,4.04
2017-11-28T19:00:34.995Z,4.00
2017-11-28T19:03:04.446Z,3.99
2017-11-28T19:05:33.670Z,3.95
2017-11-28T19:08:03.423Z,3.94
2017-11-28T19:10:32.784Z,3.96
2017-11-28T19:13:02.143Z,3.95
2017-11-28T19:15:33.644Z,4.00
2017-11-28T19:18:03.335Z,3.95
2017-11-28T19:20:32.737Z,3.99
2017-11-28T19:23:03.161Z,3.92
2017-11-28T19:25:32.709Z,3.92
2017-11-28T19:28:02.839Z,3.89
2017-11-28T19:30:32.970Z,3.95
2017-11-28T19:33:03.199Z,3.94
2017-11-28T19:35:32.726Z,3.95
2017-11-28T19:38:03.055Z,3.98
2017-11-28T19:40:32.434Z,3.92
2017-11-28T19:43:02.101Z,3.93
2017-11-28T19:45:31.668Z,3.95
2017-11-28T19:48:01.127Z,3.93
2017-11-28T19:50:31.054Z,3.94
2017-11-28T19:55:36.671Z,3.93
2017-11-28T19:58:06.175Z,4.01
2017-11-28T20:00:35.879Z,3.96
2017-11-28T20:03:06.738Z,3.97
2017-11-28T20:05:38.666Z,3.96
2017-11-28T20:08:09.036Z,4.00
2017-11-28T20:10:39.264Z,4.07
2017-11-28T20:13:09.565Z,4.07
2017-11-28T20:15:38.839Z,3.97
2017-11-28T20:18:08.106Z,3.97
2017-11-28T20:20:38.746Z,3.90
2017-11-28T20:23:08.269Z,3.93
2017-11-28T20:25:37.594Z,3.96
2017-11-28T20:28:09.802Z,3.95
2017-11-28T20:30:40.020Z,3.93
2017-11-28T20:33:11.041Z,3.89
2017-11-28T20:35:40.346Z,3.91
2017-11-28T20:38:09.653Z,3.92
2017-11-28T20:40:39.018Z,3.91
2017-11-28T20:43:10.100Z,3.89
2017-11-28T20:45:40.161Z,3.91
2017-11-28T20:48:11.574Z,3.91
2017-11-28T20:50:41.909Z,3.90
2017-11-28T20:53:11.350Z,3.87
2017-11-28T20:55:40.732Z,3.90
2017-11-28T20:58:10.071Z,3.93
2017-11-28T21:00:39.383Z,3.81
2017-11-28T21:03:08.804Z,3.79
2017-11-28T21:05:38.308Z,3.62
2017-11-28T21:08:07.521Z,3.60
2017-11-28T21:10:37.384Z,3.58
2017-11-28T21:13:06.677Z,3.62
2017-11-28T21:15:36.669Z,3.65
2017-11-28T21:18:06.298Z,3.53
2017-11-28T21:20:35.766Z,3.55
2017-11-28T21:23:05.886Z,3.51
2017-11-28T21:25:35.173Z,3.58
2017-11-28T21:30:38.788Z,3.44
2017-11-28T21:33:07.920Z,3.46
2017-11-28T21:35:37.248Z,3.45
2017-11-28T21:38:07.464Z,3.49
2017-11-28T21:40:41.581Z,3.46
2017-11-28T21:43:11.444Z,3.54
2017-11-28T21:45:40.840Z,3.53
2017-11-28T21:48:11.175Z,3.60
2017-11-28T21:50:40.729Z,3.71
2017-11-28T21:53:09.877Z,3.74
2017-11-28T21:55:39.585Z,3.76
2017-11-28T21:58:08.870Z,3.72
2017-11-28T22:00:38.355Z,3.65
2017-11-28T22:03:08.365Z,3.64
2017-11-28T22:05:37.863Z,3.66
2017-11-28T22:08:07.301Z,3.76
2017-11-28T22:10:38.005Z,3.75
2017-11-28T22:13:07.240Z,3.71
2017-11-28T22:15:36.726Z,3.76
2017-11-28T22:18:06.020Z,3.84
2017-11-28T22:20:35.453Z,3.91
2017-11-28T22:23:05.559Z,4.00
2017-11-28T22:25:35.515Z,4.00
2017-11-28T22:28:05.156Z,4.03
2017-11-28T22:30:34.257Z,4.06
2017-11-28T22:35:38.380Z,4.02
2017-11-28T22:38:08.705Z,3.85
2017-11-28T22:40:38.897Z,3.84
2017-11-28T22:43:08.222Z,3.82
2017-11-28T22:45:37.581Z,3.73
2017-11-28T22:48:06.878Z,3.59
2017-11-28T22:50:36.944Z,3.45
2017-11-28T22:53:06.147Z,3.55
2017-11-28T22:55:36.319Z,3.55
2017-11-28T22:58:05.499Z,3.56
2017-11-28T23:00:34.559Z,3.52
2017-11-28T23:03:04.794Z,3.44
2017-11-28T23:05:34.674Z,3.37
2017-11-28T23:08:03.991Z,3.42
2017-11-28T23:10:35.664Z,3.38
2017-11-28T23:13:04.730Z,3.38
2017-11-28T23:15:33.896Z,3.43
2017-11-28T23:18:05.075Z,3.57
2017-11-28T23:20:34.182Z,3.61
2017-11-28T23:23:03.234Z,3.68
2017-11-28T23:25:32.741Z,3.73
2017-11-28T23:28:01.884Z,3.77
2017-11-28T23:30:30.967Z,3.83
2017-11-28T23:33:03.142Z,3.86
2017-11-28T23:35:32.236Z,3.89
2017-11-28T23:38:01.389Z,3.88
2017-11-28T23:40:30.685Z,3.60
2017-11-28T23:42:59.769Z,3.44
2017-11-28T23:45:29.313Z,3.36
2017-11-28T23:47:58.583Z,3.32
2017-11-28T23:50:27.780Z,3.41
2017-11-28T23:52:56.908Z,3.32
2017-11-28T23:55:31.557Z,3.40
2017-11-28T23:58:00.765Z,3.48
